sensor_id;sensor_type;location;lat;lon;timestamp;P1;durP1;ratioP1;P2;durP2;ratioP2
65533;SDS011;53640;55.838;37.184;2024-02-23T00:00:06;37.58;;;21.23;;
65533;SDS011;53640;55.838;37.184;2024-02-23T00:02:37;36.55;;;20.05;;
65533;SDS011;53640;55.838;37.184;2024-02-23T00:05:04;37.97;;;20.85;;
65533;SDS011;53640;55.838;37.184;2024-02-23T00:07:30;38.15;;;19.88;;
65533;SDS011;53640;55.838;37.184;2024-02-23T00:09:57;38.30;;;19.95;;
65533;SDS011;53640;55.838;37.184;2024-02-23T00:12:24;32.28;;;18.67;;
65533;SDS011;53640;55.838;37.184;2024-02-23T00:14:51;34.53;;;19.73;;
65533;SDS011;53640;55.838;37.184;2024-02-23T00:17:18;33.03;;;18.63;;
65533;SDS011;53640;55.838;37.184;2024-02-23T00:19:45;35.90;;;18.75;;
65533;SDS011;53640;55.838;37.184;2024-02-23T00:22:13;37.55;;;20.10;;
65533;SDS011;53640;55.838;37.184;2024-02-23T00:24:40;33.20;;;18.30;;
65533;SDS011;53640;55.838;37.184;2024-02-23T00:27:07;34.30;;;18.55;;
65533;SDS011;53640;55.838;37.184;2024-02-23T00:29:33;41.40;;;22.55;;
65533;SDS011;53640;55.838;37.184;2024-02-23T00:32:01;37.38;;;20.48;;
65533;SDS011;53640;55.838;37.184;2024-02-23T00:34:29;38.85;;;20.25;;
65533;SDS011;53640;55.838;37.184;2024-02-23T00:36:58;35.75;;;19.55;;
65533;SDS011;53640;55.838;37.184;2024-02-23T00:39:24;35.63;;;19.27;;
65533;SDS011;53640;55.838;37.184;2024-02-23T00:41:53;33.78;;;19.38;;
65533;SDS011;53640;55.838;37.184;2024-02-23T00:44:20;35.92;;;20.63;;
65533;SDS011;53640;55.838;37.184;2024-02-23T00:46:46;34.75;;;19.98;;
65533;SDS011;53640;55.838;37.184;2024-02-23T00:49:12;36.83;;;19.67;;
65533;SDS011;53640;55.838;37.184;2024-02-23T00:51:40;32.47;;;19.02;;
65533;SDS011;53640;55.838;37.184;2024-02-23T00:54:07;35.78;;;20.15;;
65533;SDS011;53640;55.838;37.184;2024-02-23T00:56:34;38.78;;;20.20;;
65533;SDS011;53640;55.838;37.184;2024-02-23T00:59:01;38.45;;;21.33;;
65533;SDS011;53640;55.838;37.184;2024-02-23T01:01:28;30.80;;;17.48;;
65533;SDS011;53640;55.838;37.184;2024-02-23T01:03:55;37.40;;;18.90;;
65533;SDS011;53640;55.838;37.184;2024-02-23T01:06:21;32.85;;;18.42;;
65533;SDS011;53640;55.838;37.184;2024-02-23T01:08:48;34.15;;;19.35;;
65533;SDS011;53640;55.838;37.184;2024-02-23T01:11:14;33.58;;;18.58;;
65533;SDS011;53640;55.838;37.184;2024-02-23T01:13:40;33.47;;;17.90;;
65533;SDS011;53640;55.838;37.184;2024-02-23T01:16:07;27.80;;;15.68;;
65533;SDS011;53640;55.838;37.184;2024-02-23T01:18:35;28.13;;;16.70;;
65533;SDS011;53640;55.838;37.184;2024-02-23T01:21:03;31.55;;;17.45;;
65533;SDS011;53640;55.838;37.184;2024-02-23T01:23:29;33.35;;;18.05;;
65533;SDS011;53640;55.838;37.184;2024-02-23T01:25:56;32.28;;;19.10;;
65533;SDS011;53640;55.838;37.184;2024-02-23T01:28:24;33.58;;;18.13;;
65533;SDS011;53640;55.838;37.184;2024-02-23T01:30:51;30.67;;;16.45;;
65533;SDS011;53640;55.838;37.184;2024-02-23T01:33:17;32.67;;;17.95;;
65533;SDS011;53640;55.838;37.184;2024-02-23T01:35:44;34.53;;;18.65;;
65533;SDS011;53640;55.838;37.184;2024-02-23T01:38:11;31.65;;;18.15;;
65533;SDS011;53640;55.838;37.184;2024-02-23T01:40:45;31.58;;;17.80;;
65533;SDS011;53640;55.838;37.184;2024-02-23T01:43:12;32.20;;;18.23;;
65533;SDS011;53640;55.838;37.184;2024-02-23T01:45:38;32.97;;;17.98;;
65533;SDS011;53640;55.838;37.184;2024-02-23T01:48:06;29.30;;;15.75;;
65533;SDS011;53640;55.838;37.184;2024-02-23T01:50:34;32.03;;;18.85;;
65533;SDS011;53640;55.838;37.184;2024-02-23T01:53:02;30.20;;;17.15;;
65533;SDS011;53640;55.838;37.184;2024-02-23T01:55:28;32.92;;;18.02;;
65533;SDS011;53640;55.838;37.184;2024-02-23T01:57:56;29.55;;;17.10;;
65533;SDS011;53640;55.838;37.184;2024-02-23T02:00:22;31.35;;;16.58;;
65533;SDS011;53640;55.838;37.184;2024-02-23T02:02:55;29.40;;;16.17;;
65533;SDS011;53640;55.838;37.184;2024-02-23T02:05:24;28.38;;;16.08;;
65533;SDS011;53640;55.838;37.184;2024-02-23T02:07:51;30.67;;;17.20;;
65533;SDS011;53640;55.838;37.184;2024-02-23T02:10:20;30.85;;;17.60;;
65533;SDS011;53640;55.838;37.184;2024-02-23T02:12:48;31.85;;;16.75;;
65533;SDS011;53640;55.838;37.184;2024-02-23T02:15:16;35.75;;;19.40;;
65533;SDS011;53640;55.838;37.184;2024-02-23T02:17:42;33.00;;;17.75;;
65533;SDS011;53640;55.838;37.184;2024-02-23T02:20:11;31.95;;;17.75;;
65533;SDS011;53640;55.838;37.184;2024-02-23T02:22:40;34.13;;;18.52;;
65533;SDS011;53640;55.838;37.184;2024-02-23T02:25:07;34.80;;;18.15;;
65533;SDS011;53640;55.838;37.184;2024-02-23T02:27:38;33.50;;;17.85;;
65533;SDS011;53640;55.838;37.184;2024-02-23T02:30:05;32.85;;;18.75;;
65533;SDS011;53640;55.838;37.184;2024-02-23T02:32:32;32.80;;;18.38;;
65533;SDS011;53640;55.838;37.184;2024-02-23T02:34:58;36.83;;;19.23;;
65533;SDS011;53640;55.838;37.184;2024-02-23T02:37:25;36.00;;;18.98;;
65533;SDS011;53640;55.838;37.184;2024-02-23T02:39:51;32.08;;;17.33;;
65533;SDS011;53640;55.838;37.184;2024-02-23T02:42:18;33.33;;;16.98;;
65533;SDS011;53640;55.838;37.184;2024-02-23T02:44:44;34.85;;;18.98;;
65533;SDS011;53640;55.838;37.184;2024-02-23T02:47:11;33.13;;;18.20;;
65533;SDS011;53640;55.838;37.184;2024-02-23T02:49:39;34.13;;;17.27;;
65533;SDS011;53640;55.838;37.184;2024-02-23T02:52:07;40.25;;;20.23;;
65533;SDS011;53640;55.838;37.184;2024-02-23T02:54:34;33.25;;;18.15;;
65533;SDS011;53640;55.838;37.184;2024-02-23T02:57:02;37.80;;;19.75;;
65533;SDS011;53640;55.838;37.184;2024-02-23T02:59:28;36.85;;;19.13;;
65533;SDS011;53640;55.838;37.184;2024-02-23T03:01:54;37.03;;;19.70;;
65533;SDS011;53640;55.838;37.184;2024-02-23T03:04:23;31.63;;;17.00;;
65533;SDS011;53640;55.838;37.184;2024-02-23T03:06:49;35.22;;;18.83;;
65533;SDS011;53640;55.838;37.184;2024-02-23T03:09:16;35.25;;;18.73;;
65533;SDS011;53640;55.838;37.184;2024-02-23T03:11:42;35.88;;;17.20;;
65533;SDS011;53640;55.838;37.184;2024-02-23T03:14:08;34.70;;;17.98;;
65533;SDS011;53640;55.838;37.184;2024-02-23T03:16:36;33.80;;;17.73;;
65533;SDS011;53640;55.838;37.184;2024-02-23T03:19:03;38.80;;;19.77;;
65533;SDS011;53640;55.838;37.184;2024-02-23T03:21:30;30.88;;;17.08;;
65533;SDS011;53640;55.838;37.184;2024-02-23T03:23:58;34.03;;;17.92;;
65533;SDS011;53640;55.838;37.184;2024-02-23T03:26:24;40.28;;;19.90;;
65533;SDS011;53640;55.838;37.184;2024-02-23T03:28:51;34.35;;;18.08;;
65533;SDS011;53640;55.838;37.184;2024-02-23T03:31:18;36.70;;;19.52;;
65533;SDS011;53640;55.838;37.184;2024-02-23T03:33:46;32.42;;;17.05;;
65533;SDS011;53640;55.838;37.184;2024-02-23T03:36:14;33.15;;;17.52;;
65533;SDS011;53640;55.838;37.184;2024-02-23T03:38:41;32.85;;;17.27;;
65533;SDS011;53640;55.838;37.184;2024-02-23T03:41:08;36.10;;;17.95;;
65533;SDS011;53640;55.838;37.184;2024-02-23T03:43:36;33.08;;;17.88;;
65533;SDS011;53640;55.838;37.184;2024-02-23T03:46:05;36.33;;;18.42;;
65533;SDS011;53640;55.838;37.184;2024-02-23T03:48:32;37.47;;;18.25;;
65533;SDS011;53640;55.838;37.184;2024-02-23T03:50:58;35.67;;;18.45;;
65533;SDS011;53640;55.838;37.184;2024-02-23T03:53:25;34.67;;;18.23;;
65533;SDS011;53640;55.838;37.184;2024-02-23T03:55:51;35.30;;;17.60;;
65533;SDS011;53640;55.838;37.184;2024-02-23T03:58:18;39.55;;;19.70;;
65533;SDS011;53640;55.838;37.184;2024-02-23T04:00:45;37.88;;;19.48;;
65533;SDS011;53640;55.838;37.184;2024-02-23T04:03:11;40.53;;;20.05;;
65533;SDS011;53640;55.838;37.184;2024-02-23T04:05:37;43.53;;;20.83;;
65533;SDS011;53640;55.838;37.184;2024-02-23T04:08:04;38.75;;;17.88;;
65533;SDS011;53640;55.838;37.184;2024-02-23T04:10:31;41.28;;;19.55;;
65533;SDS011;53640;55.838;37.184;2024-02-23T04:12:58;39.92;;;19.45;;
65533;SDS011;53640;55.838;37.184;2024-02-23T04:15:25;38.88;;;19.77;;
65533;SDS011;53640;55.838;37.184;2024-02-23T04:17:51;45.40;;;21.10;;
65533;SDS011;53640;55.838;37.184;2024-02-23T04:20:18;38.50;;;19.98;;
65533;SDS011;53640;55.838;37.184;2024-02-23T04:22:44;43.25;;;20.08;;
65533;SDS011;53640;55.838;37.184;2024-02-23T04:25:12;42.60;;;19.98;;
65533;SDS011;53640;55.838;37.184;2024-02-23T04:27:40;43.35;;;18.73;;
65533;SDS011;53640;55.838;37.184;2024-02-23T04:30:06;43.70;;;20.00;;
65533;SDS011;53640;55.838;37.184;2024-02-23T04:32:33;44.25;;;21.05;;
65533;SDS011;53640;55.838;37.184;2024-02-23T04:35:00;45.08;;;21.13;;
65533;SDS011;53640;55.838;37.184;2024-02-23T04:37:26;41.45;;;20.48;;
65533;SDS011;53640;55.838;37.184;2024-02-23T04:39:52;45.63;;;21.10;;
65533;SDS011;53640;55.838;37.184;2024-02-23T04:42:18;39.55;;;18.27;;
65533;SDS011;53640;55.838;37.184;2024-02-23T04:44:45;46.97;;;21.35;;
65533;SDS011;53640;55.838;37.184;2024-02-23T04:47:12;42.50;;;21.20;;
65533;SDS011;53640;55.838;37.184;2024-02-23T04:49:38;47.40;;;21.33;;
65533;SDS011;53640;55.838;37.184;2024-02-23T04:52:05;50.40;;;21.73;;
65533;SDS011;53640;55.838;37.184;2024-02-23T04:54:31;46.83;;;21.40;;
65533;SDS011;53640;55.838;37.184;2024-02-23T04:56:58;52.35;;;22.40;;
65533;SDS011;53640;55.838;37.184;2024-02-23T04:59:24;48.13;;;21.30;;
65533;SDS011;53640;55.838;37.184;2024-02-23T05:01:50;48.85;;;21.63;;
65533;SDS011;53640;55.838;37.184;2024-02-23T05:04:17;46.90;;;20.80;;
65533;SDS011;53640;55.838;37.184;2024-02-23T05:06:43;50.95;;;23.20;;
65533;SDS011;53640;55.838;37.184;2024-02-23T05:09:10;53.80;;;23.15;;
65533;SDS011;53640;55.838;37.184;2024-02-23T05:11:37;46.28;;;21.00;;
65533;SDS011;53640;55.838;37.184;2024-02-23T05:14:04;59.45;;;23.23;;
65533;SDS011;53640;55.838;37.184;2024-02-23T05:16:30;46.63;;;21.90;;
65533;SDS011;53640;55.838;37.184;2024-02-23T05:18:56;61.97;;;24.52;;
65533;SDS011;53640;55.838;37.184;2024-02-23T05:21:23;53.22;;;22.63;;
65533;SDS011;53640;55.838;37.184;2024-02-23T05:23:49;56.08;;;21.88;;
65533;SDS011;53640;55.838;37.184;2024-02-23T05:26:16;48.30;;;20.77;;
65533;SDS011;53640;55.838;37.184;2024-02-23T05:28:43;44.15;;;19.33;;
65533;SDS011;53640;55.838;37.184;2024-02-23T05:31:15;60.22;;;22.73;;
65533;SDS011;53640;55.838;37.184;2024-02-23T05:33:43;48.53;;;19.42;;
65533;SDS011;53640;55.838;37.184;2024-02-23T05:36:09;49.40;;;20.73;;
65533;SDS011;53640;55.838;37.184;2024-02-23T05:38:36;60.00;;;23.85;;
65533;SDS011;53640;55.838;37.184;2024-02-23T05:41:02;50.97;;;21.83;;
65533;SDS011;53640;55.838;37.184;2024-02-23T05:43:28;55.25;;;21.38;;
65533;SDS011;53640;55.838;37.184;2024-02-23T05:45:55;55.80;;;22.67;;
65533;SDS011;53640;55.838;37.184;2024-02-23T05:48:23;51.67;;;21.35;;
65533;SDS011;53640;55.838;37.184;2024-02-23T05:50:49;51.03;;;21.52;;
65533;SDS011;53640;55.838;37.184;2024-02-23T05:53:15;54.70;;;22.55;;
65533;SDS011;53640;55.838;37.184;2024-02-23T05:55:47;53.00;;;21.73;;
65533;SDS011;53640;55.838;37.184;2024-02-23T05:58:14;44.75;;;19.17;;
65533;SDS011;53640;55.838;37.184;2024-02-23T06:00:44;58.83;;;20.95;;
65533;SDS011;53640;55.838;37.184;2024-02-23T06:03:11;49.97;;;21.08;;
65533;SDS011;53640;55.838;37.184;2024-02-23T06:05:39;49.17;;;20.88;;
65533;SDS011;53640;55.838;37.184;2024-02-23T06:08:06;58.92;;;21.50;;
65533;SDS011;53640;55.838;37.184;2024-02-23T06:10:32;51.90;;;22.63;;
65533;SDS011;53640;55.838;37.184;2024-02-23T06:12:59;48.67;;;21.27;;
65533;SDS011;53640;55.838;37.184;2024-02-23T06:15:25;53.00;;;20.67;;
65533;SDS011;53640;55.838;37.184;2024-02-23T06:17:52;52.85;;;21.55;;
65533;SDS011;53640;55.838;37.184;2024-02-23T06:20:19;56.22;;;21.58;;
65533;SDS011;53640;55.838;37.184;2024-02-23T06:22:46;52.17;;;20.95;;
65533;SDS011;53640;55.838;37.184;2024-02-23T06:25:14;62.28;;;22.92;;
65533;SDS011;53640;55.838;37.184;2024-02-23T06:27:40;51.35;;;20.80;;
65533;SDS011;53640;55.838;37.184;2024-02-23T06:30:15;52.33;;;20.67;;
65533;SDS011;53640;55.838;37.184;2024-02-23T06:32:42;53.83;;;21.83;;
65533;SDS011;53640;55.838;37.184;2024-02-23T06:35:09;56.80;;;21.98;;
65533;SDS011;53640;55.838;37.184;2024-02-23T06:37:37;63.35;;;25.30;;
65533;SDS011;53640;55.838;37.184;2024-02-23T06:40:04;56.00;;;22.13;;
65533;SDS011;53640;55.838;37.184;2024-02-23T06:42:33;54.28;;;21.10;;
65533;SDS011;53640;55.838;37.184;2024-02-23T06:45:00;50.28;;;21.08;;
65533;SDS011;53640;55.838;37.184;2024-02-23T06:47:28;58.22;;;23.73;;
65533;SDS011;53640;55.838;37.184;2024-02-23T06:49:55;50.00;;;20.85;;
65533;SDS011;53640;55.838;37.184;2024-02-23T06:52:21;54.15;;;21.17;;
65533;SDS011;53640;55.838;37.184;2024-02-23T06:54:49;45.05;;;18.83;;
65533;SDS011;53640;55.838;37.184;2024-02-23T06:57:15;44.30;;;20.45;;
65533;SDS011;53640;55.838;37.184;2024-02-23T06:59:42;47.30;;;20.48;;
65533;SDS011;53640;55.838;37.184;2024-02-23T07:02:08;53.25;;;22.05;;
65533;SDS011;53640;55.838;37.184;2024-02-23T07:04:35;52.13;;;22.55;;
65533;SDS011;53640;55.838;37.184;2024-02-23T07:07:01;54.85;;;21.77;;
65533;SDS011;53640;55.838;37.184;2024-02-23T07:09:33;53.27;;;21.77;;
65533;SDS011;53640;55.838;37.184;2024-02-23T07:12:00;53.90;;;22.70;;
65533;SDS011;53640;55.838;37.184;2024-02-23T07:14:27;54.08;;;21.58;;
65533;SDS011;53640;55.838;37.184;2024-02-23T07:16:53;49.13;;;20.02;;
65533;SDS011;53640;55.838;37.184;2024-02-23T07:19:20;55.38;;;21.35;;
65533;SDS011;53640;55.838;37.184;2024-02-23T07:21:46;50.90;;;20.90;;
65533;SDS011;53640;55.838;37.184;2024-02-23T07:24:13;61.22;;;22.95;;
65533;SDS011;53640;55.838;37.184;2024-02-23T07:26:39;49.60;;;19.90;;
65533;SDS011;53640;55.838;37.184;2024-02-23T07:29:06;48.53;;;21.15;;
65533;SDS011;53640;55.838;37.184;2024-02-23T07:31:33;46.58;;;20.35;;
65533;SDS011;53640;55.838;37.184;2024-02-23T07:33:59;50.60;;;21.25;;
65533;SDS011;53640;55.838;37.184;2024-02-23T07:36:26;47.40;;;20.48;;
65533;SDS011;53640;55.838;37.184;2024-02-23T07:38:53;48.58;;;22.15;;
65533;SDS011;53640;55.838;37.184;2024-02-23T07:41:20;47.97;;;21.02;;
65533;SDS011;53640;55.838;37.184;2024-02-23T07:43:47;51.58;;;22.60;;
65533;SDS011;53640;55.838;37.184;2024-02-23T07:46:13;46.78;;;20.55;;
65533;SDS011;53640;55.838;37.184;2024-02-23T07:48:40;53.42;;;21.88;;
65533;SDS011;53640;55.838;37.184;2024-02-23T07:51:06;48.42;;;21.05;;
65533;SDS011;53640;55.838;37.184;2024-02-23T07:53:34;45.00;;;20.48;;
65533;SDS011;53640;55.838;37.184;2024-02-23T07:56:00;47.60;;;20.75;;
65533;SDS011;53640;55.838;37.184;2024-02-23T07:58:28;43.20;;;19.48;;
65533;SDS011;53640;55.838;37.184;2024-02-23T08:00:55;47.85;;;21.38;;
65533;SDS011;53640;55.838;37.184;2024-02-23T08:03:21;46.00;;;19.20;;
65533;SDS011;53640;55.838;37.184;2024-02-23T08:05:47;40.97;;;19.10;;
65533;SDS011;53640;55.838;37.184;2024-02-23T08:08:14;41.15;;;19.27;;
65533;SDS011;53640;55.838;37.184;2024-02-23T08:10:41;47.22;;;20.13;;
65533;SDS011;53640;55.838;37.184;2024-02-23T08:13:07;47.72;;;21.33;;
65533;SDS011;53640;55.838;37.184;2024-02-23T08:15:35;50.25;;;22.30;;
65533;SDS011;53640;55.838;37.184;2024-02-23T08:18:02;47.47;;;21.70;;
65533;SDS011;53640;55.838;37.184;2024-02-23T08:20:29;45.17;;;20.38;;
65533;SDS011;53640;55.838;37.184;2024-02-23T08:22:56;42.00;;;19.92;;
65533;SDS011;53640;55.838;37.184;2024-02-23T08:25:23;42.58;;;19.52;;
65533;SDS011;53640;55.838;37.184;2024-02-23T08:27:49;41.30;;;20.58;;
65533;SDS011;53640;55.838;37.184;2024-02-23T08:30:16;44.58;;;20.38;;
65533;SDS011;53640;55.838;37.184;2024-02-23T08:32:42;47.03;;;20.30;;
65533;SDS011;53640;55.838;37.184;2024-02-23T08:35:09;41.88;;;18.90;;
65533;SDS011;53640;55.838;37.184;2024-02-23T08:37:35;54.40;;;21.65;;
65533;SDS011;53640;55.838;37.184;2024-02-23T08:40:01;45.17;;;21.00;;
65533;SDS011;53640;55.838;37.184;2024-02-23T08:42:29;42.00;;;20.08;;
65533;SDS011;53640;55.838;37.184;2024-02-23T08:44:55;39.65;;;18.35;;
65533;SDS011;53640;55.838;37.184;2024-02-23T08:47:22;41.05;;;19.73;;
65533;SDS011;53640;55.838;37.184;2024-02-23T08:49:48;35.42;;;18.67;;
65533;SDS011;53640;55.838;37.184;2024-02-23T08:52:15;46.42;;;19.88;;
65533;SDS011;53640;55.838;37.184;2024-02-23T08:54:41;43.67;;;20.38;;
65533;SDS011;53640;55.838;37.184;2024-02-23T08:57:07;41.75;;;19.55;;
65533;SDS011;53640;55.838;37.184;2024-02-23T08:59:34;41.95;;;20.00;;
65533;SDS011;53640;55.838;37.184;2024-02-23T09:02:00;53.22;;;22.60;;
65533;SDS011;53640;55.838;37.184;2024-02-23T09:04:27;43.05;;;21.08;;
65533;SDS011;53640;55.838;37.184;2024-02-23T09:06:53;45.15;;;20.10;;
65533;SDS011;53640;55.838;37.184;2024-02-23T09:09:20;48.28;;;20.52;;
65533;SDS011;53640;55.838;37.184;2024-02-23T09:11:47;43.28;;;20.05;;
65533;SDS011;53640;55.838;37.184;2024-02-23T09:14:14;39.78;;;19.65;;
65533;SDS011;53640;55.838;37.184;2024-02-23T09:16:40;44.17;;;20.30;;
65533;SDS011;53640;55.838;37.184;2024-02-23T09:19:06;47.95;;;22.40;;
65533;SDS011;53640;55.838;37.184;2024-02-23T09:21:33;46.45;;;19.55;;
65533;SDS011;53640;55.838;37.184;2024-02-23T09:23:59;40.15;;;19.05;;
65533;SDS011;53640;55.838;37.184;2024-02-23T09:26:26;44.33;;;20.75;;
65533;SDS011;53640;55.838;37.184;2024-02-23T09:28:52;44.10;;;20.67;;
65533;SDS011;53640;55.838;37.184;2024-02-23T09:31:19;43.80;;;20.17;;
65533;SDS011;53640;55.838;37.184;2024-02-23T09:33:45;43.42;;;19.13;;
65533;SDS011;53640;55.838;37.184;2024-02-23T09:36:12;41.70;;;20.02;;
65533;SDS011;53640;55.838;37.184;2024-02-23T09:38:39;40.03;;;18.60;;
65533;SDS011;53640;55.838;37.184;2024-02-23T09:41:07;47.30;;;21.38;;
65533;SDS011;53640;55.838;37.184;2024-02-23T09:43:43;45.53;;;20.20;;
65533;SDS011;53640;55.838;37.184;2024-02-23T09:46:10;44.78;;;19.50;;
65533;SDS011;53640;55.838;37.184;2024-02-23T09:48:37;37.90;;;17.45;;
65533;SDS011;53640;55.838;37.184;2024-02-23T09:51:04;41.95;;;20.60;;
65533;SDS011;53640;55.838;37.184;2024-02-23T09:53:31;39.85;;;18.75;;
65533;SDS011;53640;55.838;37.184;2024-02-23T09:56:02;43.17;;;19.58;;
65533;SDS011;53640;55.838;37.184;2024-02-23T09:58:33;41.85;;;19.38;;
65533;SDS011;53640;55.838;37.184;2024-02-23T10:01:01;45.28;;;19.25;;
65533;SDS011;53640;55.838;37.184;2024-02-23T10:03:29;40.38;;;18.45;;
65533;SDS011;53640;55.838;37.184;2024-02-23T10:05:58;41.85;;;19.90;;
65533;SDS011;53640;55.838;37.184;2024-02-23T10:08:27;38.63;;;17.85;;
65533;SDS011;53640;55.838;37.184;2024-02-23T10:10:54;39.55;;;18.45;;
65533;SDS011;53640;55.838;37.184;2024-02-23T10:13:22;49.85;;;19.98;;
65533;SDS011;53640;55.838;37.184;2024-02-23T10:15:52;41.90;;;18.27;;
65533;SDS011;53640;55.838;37.184;2024-02-23T10:18:19;44.50;;;19.02;;
65533;SDS011;53640;55.838;37.184;2024-02-23T10:20:46;40.30;;;19.08;;
65533;SDS011;53640;55.838;37.184;2024-02-23T10:23:13;40.20;;;17.83;;
65533;SDS011;53640;55.838;37.184;2024-02-23T10:25:39;39.22;;;17.98;;
65533;SDS011;53640;55.838;37.184;2024-02-23T10:28:06;38.70;;;17.65;;
65533;SDS011;53640;55.838;37.184;2024-02-23T10:30:33;41.10;;;19.27;;
65533;SDS011;53640;55.838;37.184;2024-02-23T10:33:00;39.47;;;18.00;;
65533;SDS011;53640;55.838;37.184;2024-02-23T10:35:26;43.45;;;18.95;;
65533;SDS011;53640;55.838;37.184;2024-02-23T10:37:56;42.95;;;19.15;;
65533;SDS011;53640;55.838;37.184;2024-02-23T10:40:23;38.95;;;17.90;;
65533;SDS011;53640;55.838;37.184;2024-02-23T10:42:52;42.95;;;18.90;;
65533;SDS011;53640;55.838;37.184;2024-02-23T10:45:23;38.20;;;18.00;;
65533;SDS011;53640;55.838;37.184;2024-02-23T10:47:49;43.63;;;19.95;;
65533;SDS011;53640;55.838;37.184;2024-02-23T10:50:17;41.20;;;18.38;;
65533;SDS011;53640;55.838;37.184;2024-02-23T10:52:45;39.95;;;18.27;;
65533;SDS011;53640;55.838;37.184;2024-02-23T10:55:15;41.47;;;16.83;;
65533;SDS011;53640;55.838;37.184;2024-02-23T10:57:43;38.30;;;17.67;;
65533;SDS011;53640;55.838;37.184;2024-02-23T11:00:10;41.53;;;19.08;;
65533;SDS011;53640;55.838;37.184;2024-02-23T11:02:43;41.03;;;17.30;;
65533;SDS011;53640;55.838;37.184;2024-02-23T11:05:11;44.83;;;18.10;;
65533;SDS011;53640;55.838;37.184;2024-02-23T11:07:40;42.28;;;18.38;;
65533;SDS011;53640;55.838;37.184;2024-02-23T11:10:06;37.25;;;17.42;;
65533;SDS011;53640;55.838;37.184;2024-02-23T11:12:35;38.53;;;17.77;;
65533;SDS011;53640;55.838;37.184;2024-02-23T11:15:01;38.53;;;16.98;;
65533;SDS011;53640;55.838;37.184;2024-02-23T11:17:32;38.05;;;16.67;;
65533;SDS011;53640;55.838;37.184;2024-02-23T11:20:04;42.55;;;17.67;;
65533;SDS011;53640;55.838;37.184;2024-02-23T11:22:33;34.30;;;16.50;;
65533;SDS011;53640;55.838;37.184;2024-02-23T11:25:04;40.00;;;18.05;;
65533;SDS011;53640;55.838;37.184;2024-02-23T11:27:33;40.53;;;17.73;;
65533;SDS011;53640;55.838;37.184;2024-02-23T11:30:01;44.85;;;18.15;;
65533;SDS011;53640;55.838;37.184;2024-02-23T11:32:37;42.28;;;17.45;;
65533;SDS011;53640;55.838;37.184;2024-02-23T11:35:06;47.55;;;18.90;;
65533;SDS011;53640;55.838;37.184;2024-02-23T11:37:51;35.85;;;17.05;;
65533;SDS011;53640;55.838;37.184;2024-02-23T11:40:29;41.38;;;18.33;;
65533;SDS011;53640;55.838;37.184;2024-02-23T11:42:59;40.83;;;16.65;;
65533;SDS011;53640;55.838;37.184;2024-02-23T11:45:27;36.42;;;17.08;;
65533;SDS011;53640;55.838;37.184;2024-02-23T11:47:55;44.63;;;19.65;;
65533;SDS011;53640;55.838;37.184;2024-02-23T11:50:21;41.22;;;18.02;;
65533;SDS011;53640;55.838;37.184;2024-02-23T11:52:48;44.00;;;19.88;;
65533;SDS011;53640;55.838;37.184;2024-02-23T11:55:21;41.50;;;18.40;;
65533;SDS011;53640;55.838;37.184;2024-02-23T11:57:48;46.90;;;20.42;;
65533;SDS011;53640;55.838;37.184;2024-02-23T12:00:15;40.17;;;16.77;;
65533;SDS011;53640;55.838;37.184;2024-02-23T12:02:43;46.20;;;19.35;;
65533;SDS011;53640;55.838;37.184;2024-02-23T12:05:12;43.05;;;19.42;;
65533;SDS011;53640;55.838;37.184;2024-02-23T12:07:40;41.50;;;19.00;;
65533;SDS011;53640;55.838;37.184;2024-02-23T12:10:07;50.38;;;19.75;;
65533;SDS011;53640;55.838;37.184;2024-02-23T12:12:36;38.10;;;18.77;;
65533;SDS011;53640;55.838;37.184;2024-02-23T12:15:03;43.47;;;18.63;;
65533;SDS011;53640;55.838;37.184;2024-02-23T12:17:31;47.78;;;19.50;;
65533;SDS011;53640;55.838;37.184;2024-02-23T12:20:01;45.22;;;18.85;;
65533;SDS011;53640;55.838;37.184;2024-02-23T12:22:29;42.10;;;18.80;;
65533;SDS011;53640;55.838;37.184;2024-02-23T12:24:59;45.05;;;18.60;;
65533;SDS011;53640;55.838;37.184;2024-02-23T12:27:26;38.13;;;17.30;;
65533;SDS011;53640;55.838;37.184;2024-02-23T12:29:53;41.22;;;17.77;;
65533;SDS011;53640;55.838;37.184;2024-02-23T12:32:20;43.63;;;18.92;;
65533;SDS011;53640;55.838;37.184;2024-02-23T12:34:50;43.13;;;18.50;;
65533;SDS011;53640;55.838;37.184;2024-02-23T12:37:18;43.17;;;18.88;;
65533;SDS011;53640;55.838;37.184;2024-02-23T12:39:45;45.67;;;20.48;;
65533;SDS011;53640;55.838;37.184;2024-02-23T12:42:11;40.65;;;17.83;;
65533;SDS011;53640;55.838;37.184;2024-02-23T12:44:38;42.63;;;18.58;;
65533;SDS011;53640;55.838;37.184;2024-02-23T12:47:04;36.85;;;18.95;;
65533;SDS011;53640;55.838;37.184;2024-02-23T12:49:31;40.60;;;17.55;;
65533;SDS011;53640;55.838;37.184;2024-02-23T12:51:57;38.95;;;17.52;;
65533;SDS011;53640;55.838;37.184;2024-02-23T12:54:24;42.90;;;19.63;;
65533;SDS011;53640;55.838;37.184;2024-02-23T12:56:53;52.47;;;20.73;;
65533;SDS011;53640;55.838;37.184;2024-02-23T12:59:20;42.65;;;19.17;;
65533;SDS011;53640;55.838;37.184;2024-02-23T13:01:46;42.95;;;20.55;;
65533;SDS011;53640;55.838;37.184;2024-02-23T13:04:13;45.20;;;20.00;;
65533;SDS011;53640;55.838;37.184;2024-02-23T13:06:40;42.13;;;20.00;;
65533;SDS011;53640;55.838;37.184;2024-02-23T13:09:06;50.08;;;20.77;;
65533;SDS011;53640;55.838;37.184;2024-02-23T13:11:38;44.92;;;20.15;;
65533;SDS011;53640;55.838;37.184;2024-02-23T13:14:04;41.78;;;19.98;;
65533;SDS011;53640;55.838;37.184;2024-02-23T13:16:31;49.42;;;20.85;;
65533;SDS011;53640;55.838;37.184;2024-02-23T13:18:58;50.60;;;21.13;;
65533;SDS011;53640;55.838;37.184;2024-02-23T13:21:24;50.60;;;21.67;;
65533;SDS011;53640;55.838;37.184;2024-02-23T13:23:51;45.45;;;19.77;;
65533;SDS011;53640;55.838;37.184;2024-02-23T13:26:17;50.05;;;20.58;;
65533;SDS011;53640;55.838;37.184;2024-02-23T13:28:44;50.53;;;22.17;;
65533;SDS011;53640;55.838;37.184;2024-02-23T13:31:11;49.55;;;21.13;;
65533;SDS011;53640;55.838;37.184;2024-02-23T13:33:40;51.25;;;21.25;;
65533;SDS011;53640;55.838;37.184;2024-02-23T13:36:06;54.33;;;21.77;;
65533;SDS011;53640;55.838;37.184;2024-02-23T13:38:33;51.13;;;21.00;;
65533;SDS011;53640;55.838;37.184;2024-02-23T13:41:04;47.35;;;20.38;;
65533;SDS011;53640;55.838;37.184;2024-02-23T13:43:32;43.20;;;20.63;;
65533;SDS011;53640;55.838;37.184;2024-02-23T13:46:00;46.80;;;20.40;;
65533;SDS011;53640;55.838;37.184;2024-02-23T13:48:26;46.83;;;20.15;;
65533;SDS011;53640;55.838;37.184;2024-02-23T13:50:53;46.67;;;20.02;;
65533;SDS011;53640;55.838;37.184;2024-02-23T13:53:19;52.88;;;21.83;;
65533;SDS011;53640;55.838;37.184;2024-02-23T13:55:46;50.83;;;21.00;;
65533;SDS011;53640;55.838;37.184;2024-02-23T13:58:12;55.42;;;22.65;;
65533;SDS011;53640;55.838;37.184;2024-02-23T14:00:39;51.20;;;21.75;;
65533;SDS011;53640;55.838;37.184;2024-02-23T14:03:06;47.72;;;19.73;;
65533;SDS011;53640;55.838;37.184;2024-02-23T14:05:32;50.38;;;21.30;;
65533;SDS011;53640;55.838;37.184;2024-02-23T14:07:59;55.33;;;21.63;;